Time;durP1;ratioP1;P1;durP2;ratioP2;P2;SDS_P1;SDS_P2;PMS_P1;PMS_P2;Temp;Humidity;BMP_temperature;BMP_pressure;BME280_temperature;BME280_humidity;BME280_pressure;Samples;Min_cycle;Max_cycle;Signal;HPM_P1;HPM_P2
2022/10/07 00:00:22;;;;;;;9.27;2.92;;;;;;;11.89;100.00;101572.28;20668076;28;20533;-79
2022/10/07 00:10:24;;;;;;;10.68;3.00;;;;;;;12.00;100.00;101574.88;20693395;23;20038;-78
2022/10/07 00:20:25;;;;;;;11.90;3.33;;;;;;;12.01;100.00;101567.00;20759208;28;20045;-77
2022/10/07 00:30:27;;;;;;;12.63;3.38;;;;;;;11.97;100.00;101560.00;20840992;28;20083;-77
2022/10/07 00:40:28;;;;;;;11.52;3.85;;;;;;;11.97;100.00;101549.50;20835445;28;20413;-78
2022/10/07 00:50:30;;;;;;;12.50;3.20;;;;;;;11.83;100.00;101530.28;20818487;28;20041;-78
2022/10/07 01:00:31;;;;;;;10.70;2.97;;;;;;;11.84;100.00;101515.44;20807045;28;20766;-78
2022/10/07 01:10:33;;;;;;;13.77;3.20;;;;;;;11.67;100.00;101502.34;20831886;28;20081;-77
2022/10/07 01:20:34;;;;;;;8.93;3.03;;;;;;;11.54;100.00;101486.59;20810180;28;20050;-77
2022/10/07 01:30:35;;;;;;;12.48;2.90;;;;;;;11.52;100.00;101477.00;20823477;28;20538;-78
2022/10/07 01:40:37;;;;;;;9.90;2.60;;;;;;;11.42;100.00;101470.91;20809549;28;20191;-77
2022/10/07 01:50:38;;;;;;;6.88;2.63;;;;;;;11.31;100.00;101459.59;20830279;28;20041;-77
2022/10/07 02:00:39;;;;;;;11.07;3.17;;;;;;;11.31;100.00;101454.34;20815277;28;20050;-78
2022/10/07 02:10:41;;;;;;;7.35;2.83;;;;;;;11.27;100.00;101445.59;20844114;28;20526;-78
2022/10/07 02:20:42;;;;;;;11.98;3.05;;;;;;;11.25;100.00;101431.59;20830929;28;20041;-77
2022/10/07 02:30:43;;;;;;;11.20;2.50;;;;;;;11.25;100.00;101420.25;20828378;28;20443;-78
2022/10/07 02:40:45;;;;;;;10.13;2.78;;;;;;;11.07;100.00;101407.16;20808626;28;20060;-77
2022/10/07 02:50:46;;;;;;;7.57;2.58;;;;;;;10.96;100.00;101404.56;20795207;28;20041;-77
2022/10/07 03:00:49;;;;;;;11.02;3.70;;;;;;;10.89;100.00;101395.84;20814058;28;20041;-77
2022/10/07 03:10:51;;;;;;;14.13;2.90;;;;;;;10.70;100.00;101391.50;20828226;28;20103;-78
2022/10/07 03:20:54;;;;;;;12.15;2.60;;;;;;;10.60;100.00;101382.78;20833976;28;20056;-79
2022/10/07 03:30:56;;;;;;;9.77;2.28;;;;;;;10.41;100.00;101381.03;20840374;28;20270;-78
2022/10/07 03:40:57;;;;;;;13.50;3.33;;;;;;;10.30;100.00;101377.50;20841459;28;20125;-78
2022/10/07 03:50:58;;;;;;;13.32;3.00;;;;;;;10.19;100.00;101377.47;20834560;28;20041;-77
2022/10/07 04:01:00;;;;;;;11.88;3.25;;;;;;;10.16;100.00;101375.75;20822240;28;20052;-78
2022/10/07 04:11:01;;;;;;;13.13;3.13;;;;;;;10.01;100.00;101367.84;20821578;28;20042;-78
2022/10/07 04:21:03;;;;;;;11.30;3.33;;;;;;;9.83;100.00;101368.69;20809882;28;20588;-78
2022/10/07 04:31:04;;;;;;;13.00;3.25;;;;;;;9.72;100.00;101358.16;20810492;28;20080;-77
2022/10/07 04:41:06;;;;;;;11.00;3.67;;;;;;;9.60;100.00;101360.75;20809504;28;20045;-78
2022/10/07 04:51:07;;;;;;;16.88;4.05;;;;;;;9.46;100.00;101337.19;20825547;28;20038;-78
2022/10/07 05:01:09;;;;;;;12.32;4.15;;;;;;;9.22;100.00;101339.69;20832732;28;20044;-78
2022/10/07 05:11:10;;;;;;;14.73;3.67;;;;;;;9.16;100.00;101326.59;20835535;28;20560;-77
2022/10/07 05:21:11;;;;;;;12.15;4.25;;;;;;;9.11;100.00;101318.75;20820725;28;20421;-77
2022/10/07 05:31:12;;;;;;;14.23;4.05;;;;;;;8.94;100.00;101326.47;20820730;28;20037;-77
2022/10/07 05:41:14;;;;;;;13.88;3.80;;;;;;;8.89;100.00;101327.31;20809234;28;20041;-78
2022/10/07 05:51:16;;;;;;;11.50;3.80;;;;;;;8.84;100.00;101324.66;20834918;28;20096;-77
2022/10/07 06:01:17;;;;;;;12.88;4.25;;;;;;;8.83;100.00;101312.47;20812561;28;20045;-77
2022/10/07 06:21:39;;;;;;;14.40;5.03;;;;;;;8.98;100.00;101307.34;20826860;28;20063;-77
2022/10/07 06:31:40;;;;;;;13.65;4.22;;;;;;;9.03;100.00;101316.94;20825976;28;20041;-77
2022/10/07 06:41:41;;;;;;;15.98;4.32;;;;;;;8.95;100.00;101320.38;20799181;28;20144;-78
2022/10/07 06:51:43;;;;;;;14.45;4.53;;;;;;;9.02;100.00;101320.44;20817635;28;20042;-78
2022/10/07 07:01:44;;;;;;;15.07;4.38;;;;;;;9.19;100.00;101323.97;20819492;28;20504;-78
2022/10/07 07:11:45;;;;;;;17.55;5.60;;;;;;;9.52;100.00;101323.25;20794064;28;20100;-78
2022/10/07 07:21:47;;;;;;;16.98;4.60;;;;;;;9.51;100.00;101327.59;20788281;28;20441;-78
2022/10/07 07:31:51;;;;;;;15.67;4.33;;;;;;;9.71;100.00;101318.94;20798437;28;20054;-79
2022/10/07 07:41:52;;;;;;;14.98;3.92;;;;;;;9.96;100.00;101328.56;20792111;28;20458;-78
2022/10/07 07:51:55;;;;;;;11.27;4.30;;;;;;;10.17;100.00;101319.03;20799897;28;20049;-77
2022/10/07 08:01:56;;;;;;;13.95;4.38;;;;;;;10.35;100.00;101319.06;20828710;28;20080;-78
2022/10/07 08:11:58;;;;;;;12.02;4.00;;;;;;;10.68;100.00;101309.41;20817268;28;20124;-78
2022/10/07 08:21:59;;;;;;;13.70;4.50;;;;;;;11.11;100.00;101301.44;20841469;28;20046;-78
2022/10/07 08:32:01;;;;;;;14.35;4.72;;;;;;;11.40;100.00;101299.63;20831815;28;20037;-78
2022/10/07 08:42:22;;;;;;;;;;;;;;;;;;;;;
2022/10/07 08:52:49;;;;;;;11.00;4.60;;;;;;;11.82;100.00;101282.75;20838136;28;20033;-78
2022/10/07 09:02:50;;;;;;;17.13;4.75;;;;;;;11.97;100.00;101279.16;20820733;28;20744;-78
2022/10/07 09:12:52;;;;;;;17.08;4.32;;;;;;;12.50;100.00;101259.47;20835777;28;20056;-76
2022/10/07 09:22:56;;;;;;;9.55;4.07;;;;;;;13.08;100.00;101250.06;20836541;28;20050;-77
2022/10/07 09:32:57;;;;;;;15.88;4.88;;;;;;;13.32;100.00;101254.19;20842571;28;20045;-76
2022/10/07 09:42:59;;;;;;;10.45;3.50;;;;;;;13.76;100.00;101228.97;20824717;28;20045;-76
2022/10/07 09:53:00;;;;;;;12.82;4.30;;;;;;;13.96;100.00;101212.88;20815802;28;20042;-76
2022/10/07 10:03:02;;;;;;;14.77;4.45;;;;;;;14.05;100.00;101216.22;20841873;28;20084;-77
2022/10/07 10:13:06;;;;;;;13.27;3.70;;;;;;;14.33;100.00;101194.66;20827902;28;20046;-77
2022/10/07 10:23:07;;;;;;;11.50;4.00;;;;;;;14.59;100.00;101184.50;20835599;28;20497;-76
2022/10/07 10:33:09;;;;;;;11.68;3.40;;;;;;;14.70;100.00;101172.88;20817451;28;20042;-76
2022/10/07 10:43:10;;;;;;;13.25;3.83;;;;;;;15.07;100.00;101155.38;20810267;28;20107;-77
2022/10/07 10:53:11;;;;;;;11.57;3.92;;;;;;;15.18;100.00;101138.44;20814980;28;20042;-77
2022/10/07 11:03:13;;;;;;;11.32;3.08;;;;;;;15.52;100.00;101120.91;20812768;28;20045;-76
2022/10/07 11:13:14;;;;;;;8.85;2.67;;;;;;;15.90;100.00;101116.44;20841198;28;20525;-76
2022/10/07 11:23:15;;;;;;;11.10;2.75;;;;;;;15.90;100.00;101090.94;20814646;28;20099;-76
2022/10/07 11:33:17;;;;;;;9.93;3.13;;;;;;;16.04;100.00;101079.97;20807724;28;20037;-76
2022/10/07 11:43:18;;;;;;;10.73;3.28;;;;;;;16.41;100.00;101052.50;20836921;28;20049;-77
2022/10/07 11:53:20;;;;;;;10.15;3.33;;;;;;;16.79;100.00;101037.28;20820949;28;20045;-77
2022/10/07 12:03:21;;;;;;;9.68;3.17;;;;;;;17.04;100.00;101022.38;20845907;28;20759;-76
2022/10/07 12:13:23;;;;;;;9.52;3.20;;;;;;;17.15;100.00;101003.47;20833476;28;20044;-76
2022/10/07 12:23:24;;;;;;;10.57;3.42;;;;;;;17.48;100.00;100985.59;20844309;28;20100;-76
2022/10/07 12:33:26;;;;;;;10.27;3.10;;;;;;;17.84;100.00;100969.34;20843821;28;20041;-76
2022/10/07 12:43:27;;;;;;;8.57;2.90;;;;;;;17.72;100.00;100954.72;20839036;28;20041;-76
2022/10/07 12:53:29;;;;;;;10.77;3.40;;;;;;;17.82;100.00;100944.69;20817694;28;20042;-76
2022/10/07 13:03:30;;;;;;;7.90;2.83;;;;;;;17.86;100.00;100927.75;20846476;28;20072;-77
2022/10/07 13:13:32;;;;;;;9.85;3.20;;;;;;;17.65;100.00;100914.38;20836525;28;20049;-77
2022/10/07 13:23:33;;;;;;;11.77;3.30;;;;;;;17.73;100.00;100894.69;20837318;28;20049;-77
2022/10/07 13:33:34;;;;;;;9.07;3.13;;;;;;;17.71;100.00;100881.50;20834840;28;20053;-77
2022/10/07 13:43:37;;;;;;;8.70;3.38;;;;;;;17.78;100.00;100872.44;20809563;28;20041;-77
2022/10/07 13:53:40;;;;;;;10.05;3.20;;;;;;;17.87;100.00;100850.00;20841098;28;20068;-77
2022/10/07 14:03:41;;;;;;;10.10;3.80;;;;;;;18.11;100.00;100835.84;20816076;28;20112;-77
2022/10/07 14:13:43;;;;;;;14.00;4.15;;;;;;;18.10;100.00;100830.56;20820643;28;20042;-77
2022/10/07 14:23:45;;;;;;;9.50;2.75;;;;;;;17.83;100.00;100816.66;20829066;28;20135;-77
2022/10/07 14:44:07;;;;;;;22.23;5.40;;;;;;;17.86;100.00;100790.00;20826716;28;20096;-77
2022/10/07 14:54:08;;;;;;;15.07;4.10;;;;;;;17.74;100.00;100771.97;20798067;28;20501;-77
2022/10/07 15:04:10;;;;;;;9.38;3.67;;;;;;;18.22;100.00;100760.31;20826337;28;20079;-78
2022/10/07 15:14:12;;;;;;;7.85;2.88;;;;;;;18.27;100.00;100747.72;20807945;28;20037;-77
2022/10/07 15:24:13;;;;;;;12.35;4.70;;;;;;;18.00;100.00;100745.28;20809921;28;20048;-78
2022/10/07 15:34:15;;;;;;;22.20;5.07;;;;;;;17.96;100.00;100727.78;20830419;28;20050;-77
2022/10/07 15:44:16;;;;;;;14.27;4.50;;;;;;;17.70;100.00;100708.50;20828912;28;20120;-77
2022/10/07 15:54:19;;;;;;;9.00;3.60;;;;;;;17.50;100.00;100710.22;20811945;28;20041;-77
2022/10/07 16:04:20;;;;;;;13.18;3.53;;;;;;;17.31;100.00;100713.56;20817787;28;20167;-77
2022/10/07 16:14:22;;;;;;;11.35;3.63;;;;;;;17.18;100.00;100712.31;20824354;28;20549;-77
2022/10/07 16:24:23;;;;;;;16.08;5.63;;;;;;;16.68;100.00;100704.44;20821597;28;20068;-76
2022/10/07 16:34:25;;;;;;;12.00;5.60;;;;;;;16.44;100.00;100703.53;20838751;28;20053;-77
2022/10/07 16:44:26;;;;;;;14.68;6.50;;;;;;;16.13;100.00;100714.28;20835293;28;20418;-77
2022/10/07 16:54:29;;;;;;;12.23;6.53;;;;;;;15.80;100.00;100700.41;20833600;28;20045;-77
2022/10/07 17:04:31;;;;;;;12.23;5.55;;;;;;;15.42;100.00;100698.94;20840730;28;20053;-76
2022/10/07 17:14:32;;;;;;;7.68;4.20;;;;;;;15.17;100.00;100698.84;20837604;28;20037;-77
2022/10/07 17:24:34;;;;;;;9.40;4.50;;;;;;;15.01;100.00;100703.72;20819141;28;20045;-77
2022/10/07 17:34:36;;;;;;;23.88;11.70;;;;;;;14.87;100.00;100704.09;20809115;28;20049;-77
2022/10/07 17:44:43;;;;;;;12.60;7.72;;;;;;;14.79;100.00;100706.06;20819020;28;20056;-77
2022/10/07 17:54:44;;;;;;;11.00;6.40;;;;;;;14.74;100.00;100702.72;20815744;28;20101;-77
2022/10/07 18:04:46;;;;;;;15.55;4.80;;;;;;;14.61;100.00;100710.09;20830027;28;20069;-76
2022/10/07 18:25:09;;;;;;;12.55;5.93;;;;;;;14.68;100.00;100706.38;20834876;28;20042;-77
2022/10/07 18:35:10;;;;;;;13.88;6.80;;;;;;;14.56;100.00;100701.44;20831901;28;20041;-77
2022/10/07 18:45:11;;;;;;;16.80;6.25;;;;;;;14.49;100.00;100700.75;20833042;28;20053;-77
2022/10/07 18:55:13;;;;;;;15.38;6.80;;;;;;;14.57;100.00;100682.97;20811795;28;20148;-77
2022/10/07 19:05:14;;;;;;;11.60;5.63;;;;;;;14.48;100.00;100688.50;20828080;28;20378;-77
2022/10/07 19:15:15;;;;;;;13.18;7.18;;;;;;;14.58;100.00;100684.69;20826936;28;20464;-77
2022/10/07 19:35:38;;;;;;;16.20;8.98;;;;;;;14.59;100.00;100691.69;20813122;28;20461;-77
2022/10/07 19:45:39;;;;;;;22.50;11.68;;;;;;;14.57;100.00;100677.72;20808980;28;20041;-77
2022/10/07 19:55:41;;;;;;;25.20;9.63;;;;;;;14.50;100.00;100676.13;20804298;28;20150;-77
2022/10/07 20:05:42;;;;;;;14.90;9.13;;;;;;;14.24;100.00;100668.91;20826088;28;20049;-77
2022/10/07 20:15:43;;;;;;;14.35;8.60;;;;;;;14.23;100.00;100674.19;20841228;28;20490;-77
2022/10/07 20:25:45;;;;;;;20.52;10.10;;;;;;;14.20;100.00;100666.41;20828674;28;20076;-77
2022/10/07 20:35:46;;;;;;;17.98;10.20;;;;;;;14.05;100.00;100673.78;20839856;28;20053;-77
2022/10/07 20:45:57;;;;;;;15.15;9.80;;;;;;;14.06;100.00;100669.38;20813752;28;20049;-76
2022/10/07 20:55:59;;;;;;;17.50;8.75;;;;;;;14.00;100.00;100661.66;20817436;28;20045;-77
2022/10/07 21:06:01;;;;;;;17.88;8.30;;;;;;;13.95;100.00;100659.13;20829166;28;20041;-77
2022/10/07 21:16:03;;;;;;;17.60;9.93;;;;;;;13.92;100.00;100668.88;20815372;28;20045;-77
2022/10/07 21:26:05;;;;;;;14.95;8.75;;;;;;;13.84;100.00;100658.53;20831871;28;20045;-77
2022/10/07 21:36:09;;;;;;;17.65;8.30;;;;;;;13.84;100.00;100655.88;20829994;28;20038;-77
2022/10/07 21:46:10;;;;;;;17.05;8.45;;;;;;;13.70;100.00;100660.63;20829840;28;20049;-77
2022/10/07 21:56:12;;;;;;;17.23;8.10;;;;;;;13.52;100.00;100662.81;20837562;28;20046;-77
2022/10/07 22:06:13;;;;;;;19.60;6.82;;;;;;;13.30;100.00;100644.03;20833900;28;20050;-77
2022/10/07 22:16:15;;;;;;;13.85;7.10;;;;;;;13.18;100.00;100646.91;20802331;28;20037;-77
2022/10/07 22:26:17;;;;;;;12.27;7.18;;;;;;;13.19;100.00;100645.16;20807209;28;20048;-77
2022/10/07 22:36:19;;;;;;;16.00;7.63;;;;;;;13.10;100.00;100652.34;20820360;28;20053;-77
2022/10/07 22:46:23;;;;;;;12.18;7.63;;;;;;;13.04;100.00;100636.72;20815527;28;20045;-77
2022/10/07 22:56:24;;;;;;;13.27;7.90;;;;;;;12.97;100.00;100637.72;20817076;28;20103;-77
2022/10/07 23:06:26;;;;;;;10.80;7.05;;;;;;;12.92;100.00;100631.69;20815999;28;20057;-77
2022/10/07 23:16:32;;;;;;;11.85;7.07;;;;;;;12.91;100.00;100618.59;20833368;28;20110;-77
2022/10/07 23:26:34;;;;;;;13.10;7.32;;;;;;;12.90;100.00;100617.75;20804815;28;20425;-77
2022/10/07 23:36:35;;;;;;;13.95;8.45;;;;;;;13.02;100.00;100609.56;20819389;28;20435;-77
2022/10/07 23:46:38;;;;;;;16.13;8.70;;;;;;;12.99;100.00;100609.66;20813796;28;20046;-77
2022/10/07 23:56:40;;;;;;;16.10;8.63;;;;;;;12.95;100.00;100586.97;20827621;28;20096;-77
